sensor_id;sensor_type;location;lat;lon;timestamp;P1;durP1;ratioP1;P2;durP2;ratioP2
59052;SDS011;44843;44.728;10.396;2022-10-16T00:01:33;20.83;;;12.93;;
59052;SDS011;44843;44.728;10.396;2022-10-16T00:03:59;21.67;;;12.50;;
59052;SDS011;44843;44.728;10.396;2022-10-16T00:06:25;19.38;;;11.90;;
59052;SDS011;44843;44.728;10.396;2022-10-16T00:08:52;20.10;;;12.07;;
59052;SDS011;44843;44.728;10.396;2022-10-16T00:11:28;21.15;;;11.75;;
59052;SDS011;44843;44.728;10.396;2022-10-16T00:13:56;19.30;;;11.73;;
59052;SDS011;44843;44.728;10.396;2022-10-16T00:16:23;22.73;;;12.18;;
59052;SDS011;44843;44.728;10.396;2022-10-16T00:18:49;18.15;;;11.82;;
59052;SDS011;44843;44.728;10.396;2022-10-16T00:21:21;20.25;;;11.80;;
59052;SDS011;44843;44.728;10.396;2022-10-16T00:23:52;16.08;;;11.32;;
59052;SDS011;44843;44.728;10.396;2022-10-16T00:26:20;17.13;;;10.65;;
59052;SDS011;44843;44.728;10.396;2022-10-16T00:28:46;18.08;;;12.07;;
59052;SDS011;44843;44.728;10.396;2022-10-16T00:31:13;18.13;;;11.70;;
59052;SDS011;44843;44.728;10.396;2022-10-16T00:33:40;21.15;;;13.05;;
59052;SDS011;44843;44.728;10.396;2022-10-16T00:36:07;21.65;;;13.38;;
59052;SDS011;44843;44.728;10.396;2022-10-16T00:38:34;20.90;;;11.70;;
59052;SDS011;44843;44.728;10.396;2022-10-16T00:41:00;24.95;;;12.55;;
59052;SDS011;44843;44.728;10.396;2022-10-16T00:48:46;21.77;;;12.70;;
59052;SDS011;44843;44.728;10.396;2022-10-16T00:51:17;18.02;;;11.98;;
59052;SDS011;44843;44.728;10.396;2022-10-16T00:53:46;19.55;;;13.35;;
59052;SDS011;44843;44.728;10.396;2022-10-16T00:56:13;23.77;;;13.30;;
59052;SDS011;44843;44.728;10.396;2022-10-16T00:58:38;18.20;;;12.18;;
59052;SDS011;44843;44.728;10.396;2022-10-16T01:01:03;25.42;;;13.75;;
59052;SDS011;44843;44.728;10.396;2022-10-16T01:03:30;16.23;;;11.80;;
59052;SDS011;44843;44.728;10.396;2022-10-16T01:06:09;17.88;;;11.70;;
59052;SDS011;44843;44.728;10.396;2022-10-16T01:09:00;18.35;;;11.60;;
59052;SDS011;44843;44.728;10.396;2022-10-16T01:12:02;19.05;;;11.35;;
59052;SDS011;44843;44.728;10.396;2022-10-16T01:14:32;20.60;;;11.40;;
59052;SDS011;44843;44.728;10.396;2022-10-16T01:17:04;19.17;;;11.82;;
59052;SDS011;44843;44.728;10.396;2022-10-16T01:19:41;19.60;;;11.45;;
59052;SDS011;44843;44.728;10.396;2022-10-16T01:22:17;23.33;;;11.35;;
59052;SDS011;44843;44.728;10.396;2022-10-16T01:24:45;15.05;;;11.57;;
59052;SDS011;44843;44.728;10.396;2022-10-16T01:27:15;19.45;;;11.95;;
59052;SDS011;44843;44.728;10.396;2022-10-16T01:35:41;17.70;;;12.43;;
59052;SDS011;44843;44.728;10.396;2022-10-16T01:40:41;24.85;;;13.30;;
59052;SDS011;44843;44.728;10.396;2022-10-16T01:43:15;21.90;;;13.18;;
59052;SDS011;44843;44.728;10.396;2022-10-16T01:45:45;19.08;;;13.50;;
59052;SDS011;44843;44.728;10.396;2022-10-16T01:48:14;25.65;;;13.60;;
59052;SDS011;44843;44.728;10.396;2022-10-16T01:50:43;24.58;;;13.70;;
59052;SDS011;44843;44.728;10.396;2022-10-16T01:53:13;25.38;;;14.35;;
59052;SDS011;44843;44.728;10.396;2022-10-16T01:55:42;24.25;;;15.20;;
59052;SDS011;44843;44.728;10.396;2022-10-16T01:58:11;22.70;;;13.77;;
59052;SDS011;44843;44.728;10.396;2022-10-16T02:00:38;27.27;;;14.90;;
59052;SDS011;44843;44.728;10.396;2022-10-16T02:03:07;22.00;;;13.25;;
59052;SDS011;44843;44.728;10.396;2022-10-16T02:05:44;23.33;;;14.52;;
59052;SDS011;44843;44.728;10.396;2022-10-16T02:08:14;22.40;;;14.98;;
59052;SDS011;44843;44.728;10.396;2022-10-16T02:10:39;21.98;;;13.50;;
59052;SDS011;44843;44.728;10.396;2022-10-16T02:13:06;24.80;;;14.25;;
59052;SDS011;44843;44.728;10.396;2022-10-16T02:15:37;25.15;;;14.00;;
59052;SDS011;44843;44.728;10.396;2022-10-16T02:18:04;20.65;;;13.68;;
59052;SDS011;44843;44.728;10.396;2022-10-16T02:20:53;21.30;;;13.75;;
59052;SDS011;44843;44.728;10.396;2022-10-16T02:23:25;24.23;;;13.32;;
59052;SDS011;44843;44.728;10.396;2022-10-16T02:25:58;19.20;;;13.40;;
59052;SDS011;44843;44.728;10.396;2022-10-16T02:28:30;31.92;;;13.48;;
59052;SDS011;44843;44.728;10.396;2022-10-16T02:31:08;22.52;;;13.85;;
59052;SDS011;44843;44.728;10.396;2022-10-16T02:33:36;21.35;;;13.68;;
59052;SDS011;44843;44.728;10.396;2022-10-16T02:36:05;22.88;;;13.13;;
59052;SDS011;44843;44.728;10.396;2022-10-16T02:38:30;20.35;;;12.95;;
59052;SDS011;44843;44.728;10.396;2022-10-16T02:40:56;20.33;;;13.50;;
59052;SDS011;44843;44.728;10.396;2022-10-16T02:43:22;19.90;;;12.98;;
59052;SDS011;44843;44.728;10.396;2022-10-16T02:45:47;19.25;;;12.90;;
59052;SDS011;44843;44.728;10.396;2022-10-16T02:48:12;22.50;;;12.90;;
59052;SDS011;44843;44.728;10.396;2022-10-16T02:50:38;21.98;;;13.23;;
59052;SDS011;44843;44.728;10.396;2022-10-16T02:53:03;23.88;;;13.55;;
59052;SDS011;44843;44.728;10.396;2022-10-16T02:55:29;24.95;;;13.68;;
59052;SDS011;44843;44.728;10.396;2022-10-16T02:57:54;22.58;;;13.50;;
59052;SDS011;44843;44.728;10.396;2022-10-16T03:00:20;20.33;;;13.48;;
59052;SDS011;44843;44.728;10.396;2022-10-16T03:02:46;20.65;;;12.55;;
59052;SDS011;44843;44.728;10.396;2022-10-16T03:05:12;20.45;;;13.63;;
59052;SDS011;44843;44.728;10.396;2022-10-16T03:07:38;22.70;;;13.80;;
59052;SDS011;44843;44.728;10.396;2022-10-16T03:10:04;22.73;;;13.63;;
59052;SDS011;44843;44.728;10.396;2022-10-16T03:12:29;20.38;;;13.43;;
59052;SDS011;44843;44.728;10.396;2022-10-16T03:14:55;20.45;;;13.40;;
59052;SDS011;44843;44.728;10.396;2022-10-16T03:17:21;22.30;;;13.80;;
59052;SDS011;44843;44.728;10.396;2022-10-16T03:19:47;20.80;;;14.02;;
59052;SDS011;44843;44.728;10.396;2022-10-16T03:22:13;20.15;;;13.50;;
59052;SDS011;44843;44.728;10.396;2022-10-16T03:24:38;19.23;;;13.23;;
59052;SDS011;44843;44.728;10.396;2022-10-16T03:27:04;18.40;;;12.85;;
59052;SDS011;44843;44.728;10.396;2022-10-16T03:29:30;20.63;;;13.48;;
59052;SDS011;44843;44.728;10.396;2022-10-16T03:31:57;21.33;;;13.95;;
59052;SDS011;44843;44.728;10.396;2022-10-16T03:34:22;20.60;;;14.10;;
59052;SDS011;44843;44.728;10.396;2022-10-16T03:36:48;21.20;;;13.60;;
59052;SDS011;44843;44.728;10.396;2022-10-16T03:39:13;22.35;;;13.30;;
59052;SDS011;44843;44.728;10.396;2022-10-16T03:41:38;19.48;;;13.15;;
59052;SDS011;44843;44.728;10.396;2022-10-16T03:44:04;17.25;;;11.73;;
59052;SDS011;44843;44.728;10.396;2022-10-16T03:46:29;22.98;;;12.05;;
59052;SDS011;44843;44.728;10.396;2022-10-16T03:48:55;18.65;;;12.00;;
59052;SDS011;44843;44.728;10.396;2022-10-16T03:51:20;18.75;;;11.90;;
59052;SDS011;44843;44.728;10.396;2022-10-16T03:53:46;20.65;;;11.90;;
59052;SDS011;44843;44.728;10.396;2022-10-16T03:56:11;19.70;;;12.63;;
59052;SDS011;44843;44.728;10.396;2022-10-16T03:58:36;19.10;;;11.95;;
59052;SDS011;44843;44.728;10.396;2022-10-16T04:01:02;15.23;;;10.73;;
59052;SDS011;44843;44.728;10.396;2022-10-16T04:03:27;21.38;;;12.60;;
59052;SDS011;44843;44.728;10.396;2022-10-16T04:05:53;17.52;;;10.63;;
59052;SDS011;44843;44.728;10.396;2022-10-16T04:08:18;15.48;;;10.43;;
59052;SDS011;44843;44.728;10.396;2022-10-16T04:10:44;14.48;;;9.93;;
59052;SDS011;44843;44.728;10.396;2022-10-16T04:13:10;15.95;;;10.02;;
59052;SDS011;44843;44.728;10.396;2022-10-16T04:15:36;17.30;;;10.48;;
59052;SDS011;44843;44.728;10.396;2022-10-16T04:18:02;15.88;;;10.35;;
59052;SDS011;44843;44.728;10.396;2022-10-16T04:20:28;14.68;;;9.40;;
59052;SDS011;44843;44.728;10.396;2022-10-16T04:22:53;19.48;;;11.35;;
59052;SDS011;44843;44.728;10.396;2022-10-16T04:25:19;17.85;;;10.20;;
59052;SDS011;44843;44.728;10.396;2022-10-16T04:27:44;13.30;;;9.10;;
59052;SDS011;44843;44.728;10.396;2022-10-16T04:30:09;15.35;;;8.90;;
59052;SDS011;44843;44.728;10.396;2022-10-16T04:32:35;13.25;;;9.48;;
59052;SDS011;44843;44.728;10.396;2022-10-16T04:35:00;14.73;;;9.50;;
59052;SDS011;44843;44.728;10.396;2022-10-16T04:37:26;13.20;;;9.35;;
59052;SDS011;44843;44.728;10.396;2022-10-16T04:39:52;15.93;;;8.98;;
59052;SDS011;44843;44.728;10.396;2022-10-16T04:42:18;12.07;;;9.25;;
59052;SDS011;44843;44.728;10.396;2022-10-16T04:44:44;13.15;;;8.90;;
59052;SDS011;44843;44.728;10.396;2022-10-16T04:47:10;21.58;;;8.98;;
59052;SDS011;44843;44.728;10.396;2022-10-16T04:49:35;11.30;;;8.15;;
59052;SDS011;44843;44.728;10.396;2022-10-16T04:52:00;12.80;;;8.30;;
59052;SDS011;44843;44.728;10.396;2022-10-16T04:54:26;13.52;;;8.52;;
59052;SDS011;44843;44.728;10.396;2022-10-16T04:56:51;12.30;;;7.30;;
59052;SDS011;44843;44.728;10.396;2022-10-16T04:59:17;14.02;;;8.70;;
59052;SDS011;44843;44.728;10.396;2022-10-16T05:01:44;12.88;;;8.35;;
59052;SDS011;44843;44.728;10.396;2022-10-16T05:04:10;10.57;;;8.18;;
59052;SDS011;44843;44.728;10.396;2022-10-16T05:06:36;13.30;;;8.07;;
59052;SDS011;44843;44.728;10.396;2022-10-16T05:09:03;13.60;;;7.97;;
59052;SDS011;44843;44.728;10.396;2022-10-16T05:11:29;13.68;;;8.55;;
59052;SDS011;44843;44.728;10.396;2022-10-16T05:13:55;12.88;;;8.75;;
59052;SDS011;44843;44.728;10.396;2022-10-16T05:16:20;10.65;;;7.95;;
59052;SDS011;44843;44.728;10.396;2022-10-16T05:18:46;12.88;;;7.70;;
59052;SDS011;44843;44.728;10.396;2022-10-16T05:21:11;13.88;;;8.20;;
59052;SDS011;44843;44.728;10.396;2022-10-16T05:23:36;12.32;;;8.23;;
59052;SDS011;44843;44.728;10.396;2022-10-16T05:26:02;11.50;;;7.70;;
59052;SDS011;44843;44.728;10.396;2022-10-16T05:28:28;15.45;;;8.38;;
59052;SDS011;44843;44.728;10.396;2022-10-16T05:30:55;12.55;;;7.38;;
59052;SDS011;44843;44.728;10.396;2022-10-16T05:33:21;10.63;;;7.35;;
59052;SDS011;44843;44.728;10.396;2022-10-16T05:35:47;11.73;;;7.55;;
59052;SDS011;44843;44.728;10.396;2022-10-16T05:38:12;11.18;;;7.75;;
59052;SDS011;44843;44.728;10.396;2022-10-16T05:40:38;11.75;;;7.68;;
59052;SDS011;44843;44.728;10.396;2022-10-16T05:43:04;12.45;;;8.13;;
59052;SDS011;44843;44.728;10.396;2022-10-16T05:45:29;16.10;;;8.00;;
59052;SDS011;44843;44.728;10.396;2022-10-16T05:47:55;10.60;;;7.78;;
59052;SDS011;44843;44.728;10.396;2022-10-16T05:50:20;12.98;;;8.18;;
59052;SDS011;44843;44.728;10.396;2022-10-16T05:52:46;13.07;;;7.97;;
59052;SDS011;44843;44.728;10.396;2022-10-16T05:55:11;14.40;;;8.27;;
59052;SDS011;44843;44.728;10.396;2022-10-16T05:57:36;12.80;;;8.32;;
59052;SDS011;44843;44.728;10.396;2022-10-16T06:00:03;14.40;;;7.78;;
59052;SDS011;44843;44.728;10.396;2022-10-16T06:02:29;12.63;;;8.05;;
59052;SDS011;44843;44.728;10.396;2022-10-16T06:04:54;12.55;;;7.03;;
59052;SDS011;44843;44.728;10.396;2022-10-16T06:07:20;10.32;;;6.22;;
59052;SDS011;44843;44.728;10.396;2022-10-16T06:09:49;12.93;;;6.65;;
59052;SDS011;44843;44.728;10.396;2022-10-16T06:12:15;7.47;;;5.50;;
59052;SDS011;44843;44.728;10.396;2022-10-16T06:14:41;11.15;;;6.13;;
59052;SDS011;44843;44.728;10.396;2022-10-16T06:17:06;8.65;;;6.47;;
59052;SDS011;44843;44.728;10.396;2022-10-16T06:19:32;12.57;;;6.78;;
59052;SDS011;44843;44.728;10.396;2022-10-16T06:21:57;11.75;;;6.10;;
59052;SDS011;44843;44.728;10.396;2022-10-16T06:24:23;8.85;;;6.28;;
59052;SDS011;44843;44.728;10.396;2022-10-16T06:26:49;7.90;;;6.00;;
59052;SDS011;44843;44.728;10.396;2022-10-16T06:29:14;12.95;;;5.93;;
59052;SDS011;44843;44.728;10.396;2022-10-16T06:31:40;8.00;;;5.70;;
59052;SDS011;44843;44.728;10.396;2022-10-16T06:34:05;9.45;;;6.78;;
59052;SDS011;44843;44.728;10.396;2022-10-16T06:36:34;11.70;;;5.43;;
59052;SDS011;44843;44.728;10.396;2022-10-16T06:39:00;6.82;;;5.55;;
59052;SDS011;44843;44.728;10.396;2022-10-16T06:41:25;9.77;;;5.38;;
59052;SDS011;44843;44.728;10.396;2022-10-16T06:43:51;10.43;;;5.82;;
59052;SDS011;44843;44.728;10.396;2022-10-16T06:46:18;10.63;;;5.15;;
59052;SDS011;44843;44.728;10.396;2022-10-16T06:48:46;8.63;;;4.70;;
59052;SDS011;44843;44.728;10.396;2022-10-16T06:51:13;6.95;;;5.03;;
59052;SDS011;44843;44.728;10.396;2022-10-16T06:53:41;7.78;;;4.95;;
59052;SDS011;44843;44.728;10.396;2022-10-16T06:56:12;12.02;;;5.25;;
59052;SDS011;44843;44.728;10.396;2022-10-16T06:58:52;11.40;;;6.18;;
59052;SDS011;44843;44.728;10.396;2022-10-16T07:01:19;7.03;;;5.10;;
59052;SDS011;44843;44.728;10.396;2022-10-16T07:03:46;8.52;;;5.03;;
59052;SDS011;44843;44.728;10.396;2022-10-16T07:06:13;9.20;;;5.72;;
59052;SDS011;44843;44.728;10.396;2022-10-16T07:08:40;7.85;;;5.90;;
59052;SDS011;44843;44.728;10.396;2022-10-16T07:11:08;13.18;;;5.53;;
59052;SDS011;44843;44.728;10.396;2022-10-16T07:13:35;7.10;;;5.40;;
59052;SDS011;44843;44.728;10.396;2022-10-16T07:16:05;10.77;;;5.85;;
59052;SDS011;44843;44.728;10.396;2022-10-16T07:18:38;7.68;;;5.63;;
59052;SDS011;44843;44.728;10.396;2022-10-16T07:23:30;10.05;;;6.03;;
59052;SDS011;44843;44.728;10.396;2022-10-16T07:25:56;9.30;;;6.20;;
59052;SDS011;44843;44.728;10.396;2022-10-16T07:28:21;10.32;;;5.85;;
59052;SDS011;44843;44.728;10.396;2022-10-16T07:30:47;8.68;;;5.45;;
59052;SDS011;44843;44.728;10.396;2022-10-16T07:33:13;11.35;;;6.03;;
59052;SDS011;44843;44.728;10.396;2022-10-16T07:35:46;9.32;;;5.40;;
59052;SDS011;44843;44.728;10.396;2022-10-16T07:38:18;11.98;;;6.03;;
59052;SDS011;44843;44.728;10.396;2022-10-16T07:40:44;10.90;;;6.43;;
59052;SDS011;44843;44.728;10.396;2022-10-16T07:43:09;11.30;;;6.25;;
59052;SDS011;44843;44.728;10.396;2022-10-16T07:45:35;8.45;;;5.80;;
59052;SDS011;44843;44.728;10.396;2022-10-16T07:48:01;13.70;;;6.85;;
59052;SDS011;44843;44.728;10.396;2022-10-16T07:50:26;12.57;;;5.75;;
59052;SDS011;44843;44.728;10.396;2022-10-16T07:52:51;7.97;;;5.60;;
59052;SDS011;44843;44.728;10.396;2022-10-16T07:55:17;8.10;;;5.30;;
59052;SDS011;44843;44.728;10.396;2022-10-16T07:57:42;8.15;;;4.97;;
59052;SDS011;44843;44.728;10.396;2022-10-16T08:00:08;8.40;;;5.40;;
59052;SDS011;44843;44.728;10.396;2022-10-16T08:02:38;10.38;;;5.47;;
59052;SDS011;44843;44.728;10.396;2022-10-16T08:05:05;7.28;;;4.57;;
59052;SDS011;44843;44.728;10.396;2022-10-16T08:07:31;7.97;;;4.65;;
59052;SDS011;44843;44.728;10.396;2022-10-16T08:09:56;7.70;;;4.70;;
59052;SDS011;44843;44.728;10.396;2022-10-16T08:12:23;11.48;;;4.80;;
59052;SDS011;44843;44.728;10.396;2022-10-16T08:14:49;11.00;;;5.40;;
59052;SDS011;44843;44.728;10.396;2022-10-16T08:17:15;6.68;;;4.60;;
59052;SDS011;44843;44.728;10.396;2022-10-16T08:19:43;6.13;;;3.95;;
59052;SDS011;44843;44.728;10.396;2022-10-16T08:22:10;6.97;;;4.43;;
59052;SDS011;44843;44.728;10.396;2022-10-16T08:24:35;5.57;;;4.68;;
59052;SDS011;44843;44.728;10.396;2022-10-16T08:27:02;7.15;;;3.95;;
59052;SDS011;44843;44.728;10.396;2022-10-16T08:29:27;7.03;;;4.97;;
59052;SDS011;44843;44.728;10.396;2022-10-16T08:31:53;7.53;;;4.60;;
59052;SDS011;44843;44.728;10.396;2022-10-16T08:34:18;6.45;;;4.15;;
59052;SDS011;44843;44.728;10.396;2022-10-16T08:36:44;6.30;;;4.43;;
59052;SDS011;44843;44.728;10.396;2022-10-16T08:39:09;9.35;;;5.00;;
59052;SDS011;44843;44.728;10.396;2022-10-16T08:47:23;8.90;;;5.35;;
59052;SDS011;44843;44.728;10.396;2022-10-16T08:49:57;7.15;;;4.43;;
59052;SDS011;44843;44.728;10.396;2022-10-16T08:52:29;9.15;;;4.82;;
59052;SDS011;44843;44.728;10.396;2022-10-16T08:54:57;10.02;;;5.07;;
59052;SDS011;44843;44.728;10.396;2022-10-16T08:57:24;7.93;;;5.25;;
59052;SDS011;44843;44.728;10.396;2022-10-16T08:59:51;10.13;;;5.72;;
59052;SDS011;44843;44.728;10.396;2022-10-16T09:05:14;7.55;;;5.55;;
59052;SDS011;44843;44.728;10.396;2022-10-16T09:10:49;8.95;;;6.00;;
59052;SDS011;44843;44.728;10.396;2022-10-16T09:13:35;7.45;;;5.32;;
59052;SDS011;44843;44.728;10.396;2022-10-16T09:16:26;8.23;;;5.97;;
59052;SDS011;44843;44.728;10.396;2022-10-16T09:21:36;9.43;;;6.20;;
59052;SDS011;44843;44.728;10.396;2022-10-16T09:24:19;14.27;;;6.35;;
59052;SDS011;44843;44.728;10.396;2022-10-16T09:26:48;13.82;;;6.72;;
59052;SDS011;44843;44.728;10.396;2022-10-16T09:29:14;9.43;;;5.35;;
59052;SDS011;44843;44.728;10.396;2022-10-16T09:31:41;10.30;;;6.40;;
59052;SDS011;44843;44.728;10.396;2022-10-16T09:34:13;10.48;;;6.45;;
59052;SDS011;44843;44.728;10.396;2022-10-16T09:36:49;6.72;;;5.97;;
59052;SDS011;44843;44.728;10.396;2022-10-16T09:39:16;9.25;;;6.03;;
59052;SDS011;44843;44.728;10.396;2022-10-16T09:41:42;9.73;;;6.03;;
59052;SDS011;44843;44.728;10.396;2022-10-16T09:44:23;7.75;;;6.20;;
59052;SDS011;44843;44.728;10.396;2022-10-16T09:47:16;10.20;;;6.72;;
59052;SDS011;44843;44.728;10.396;2022-10-16T09:50:03;9.45;;;6.13;;
59052;SDS011;44843;44.728;10.396;2022-10-16T09:52:44;8.80;;;6.15;;
59052;SDS011;44843;44.728;10.396;2022-10-16T09:55:13;8.60;;;6.60;;
59052;SDS011;44843;44.728;10.396;2022-10-16T09:57:53;9.00;;;5.90;;
59052;SDS011;44843;44.728;10.396;2022-10-16T10:00:20;11.95;;;7.28;;
59052;SDS011;44843;44.728;10.396;2022-10-16T10:02:46;8.00;;;6.05;;
59052;SDS011;44843;44.728;10.396;2022-10-16T10:05:20;10.57;;;6.28;;
59052;SDS011;44843;44.728;10.396;2022-10-16T10:07:56;10.73;;;6.80;;
59052;SDS011;44843;44.728;10.396;2022-10-16T10:10:28;8.95;;;6.45;;
59052;SDS011;44843;44.728;10.396;2022-10-16T10:12:54;10.35;;;6.75;;
59052;SDS011;44843;44.728;10.396;2022-10-16T10:15:21;11.65;;;6.85;;
59052;SDS011;44843;44.728;10.396;2022-10-16T10:17:55;12.77;;;6.90;;
59052;SDS011;44843;44.728;10.396;2022-10-16T10:22:47;12.88;;;8.55;;
59052;SDS011;44843;44.728;10.396;2022-10-16T10:57:33;13.75;;;8.73;;
59052;SDS011;44843;44.728;10.396;2022-10-16T11:00:12;15.20;;;9.10;;
59052;SDS011;44843;44.728;10.396;2022-10-16T11:02:54;12.98;;;8.48;;
59052;SDS011;44843;44.728;10.396;2022-10-16T11:08:18;11.32;;;7.95;;
59052;SDS011;44843;44.728;10.396;2022-10-16T11:13:39;13.13;;;8.52;;
59052;SDS011;44843;44.728;10.396;2022-10-16T11:16:38;11.48;;;8.80;;
59052;SDS011;44843;44.728;10.396;2022-10-16T11:21:43;13.40;;;9.35;;
59052;SDS011;44843;44.728;10.396;2022-10-16T11:24:30;12.48;;;9.00;;
59052;SDS011;44843;44.728;10.396;2022-10-16T11:27:07;12.57;;;8.68;;
59052;SDS011;44843;44.728;10.396;2022-10-16T11:29:34;18.42;;;11.10;;
59052;SDS011;44843;44.728;10.396;2022-10-16T11:32:10;13.80;;;9.60;;
59052;SDS011;44843;44.728;10.396;2022-10-16T11:34:47;12.85;;;8.27;;
59052;SDS011;44843;44.728;10.396;2022-10-16T11:37:18;13.18;;;8.13;;
59052;SDS011;44843;44.728;10.396;2022-10-16T11:39:48;15.70;;;8.77;;
59052;SDS011;44843;44.728;10.396;2022-10-16T11:42:29;13.07;;;8.00;;
59052;SDS011;44843;44.728;10.396;2022-10-16T11:52:58;16.27;;;9.77;;
59052;SDS011;44843;44.728;10.396;2022-10-16T11:55:27;18.27;;;10.00;;
59052;SDS011;44843;44.728;10.396;2022-10-16T11:58:01;20.88;;;10.10;;
59052;SDS011;44843;44.728;10.396;2022-10-16T12:06:11;16.73;;;9.50;;
59052;SDS011;44843;44.728;10.396;2022-10-16T12:08:59;15.88;;;11.18;;
59052;SDS011;44843;44.728;10.396;2022-10-16T12:19:24;15.88;;;10.10;;
59052;SDS011;44843;44.728;10.396;2022-10-16T12:21:51;14.15;;;9.18;;
59052;SDS011;44843;44.728;10.396;2022-10-16T12:24:38;19.05;;;9.35;;
59052;SDS011;44843;44.728;10.396;2022-10-16T12:27:21;14.82;;;9.73;;
59052;SDS011;44843;44.728;10.396;2022-10-16T12:29:58;16.30;;;9.38;;
59052;SDS011;44843;44.728;10.396;2022-10-16T12:34:56;15.82;;;9.10;;
59052;SDS011;44843;44.728;10.396;2022-10-16T12:37:23;16.23;;;9.73;;
59052;SDS011;44843;44.728;10.396;2022-10-16T12:39:53;14.40;;;10.20;;
59052;SDS011;44843;44.728;10.396;2022-10-16T12:44:52;17.30;;;9.98;;
59052;SDS011;44843;44.728;10.396;2022-10-16T12:47:22;18.13;;;9.80;;
59052;SDS011;44843;44.728;10.396;2022-10-16T12:49:57;18.25;;;10.52;;
59052;SDS011;44843;44.728;10.396;2022-10-16T12:52:44;18.67;;;10.48;;
59052;SDS011;44843;44.728;10.396;2022-10-16T12:55:15;14.60;;;9.82;;
59052;SDS011;44843;44.728;10.396;2022-10-16T13:00:46;19.42;;;10.48;;
59052;SDS011;44843;44.728;10.396;2022-10-16T13:06:51;14.73;;;10.00;;
59052;SDS011;44843;44.728;10.396;2022-10-16T13:09:31;16.85;;;10.52;;
59052;SDS011;44843;44.728;10.396;2022-10-16T13:23:30;18.15;;;10.65;;
59052;SDS011;44843;44.728;10.396;2022-10-16T13:28:59;17.25;;;10.90;;
59052;SDS011;44843;44.728;10.396;2022-10-16T13:31:26;18.38;;;11.68;;
59052;SDS011;44843;44.728;10.396;2022-10-16T13:33:54;17.45;;;11.18;;
59052;SDS011;44843;44.728;10.396;2022-10-16T13:36:25;18.45;;;11.13;;
59052;SDS011;44843;44.728;10.396;2022-10-16T13:38:59;19.92;;;11.65;;
59052;SDS011;44843;44.728;10.396;2022-10-16T13:41:45;21.92;;;12.13;;
59052;SDS011;44843;44.728;10.396;2022-10-16T13:44:13;16.20;;;11.02;;
59052;SDS011;44843;44.728;10.396;2022-10-16T13:46:42;21.13;;;12.80;;
59052;SDS011;44843;44.728;10.396;2022-10-16T13:49:12;19.83;;;12.75;;
59052;SDS011;44843;44.728;10.396;2022-10-16T13:51:40;20.75;;;11.88;;
59052;SDS011;44843;44.728;10.396;2022-10-16T13:54:08;21.13;;;12.70;;
59052;SDS011;44843;44.728;10.396;2022-10-16T13:56:34;19.55;;;12.70;;
59052;SDS011;44843;44.728;10.396;2022-10-16T14:01:30;19.15;;;11.65;;
59052;SDS011;44843;44.728;10.396;2022-10-16T14:04:03;20.67;;;12.85;;
59052;SDS011;44843;44.728;10.396;2022-10-16T14:06:30;22.27;;;13.07;;
59052;SDS011;44843;44.728;10.396;2022-10-16T14:09:07;21.80;;;12.95;;
59052;SDS011;44843;44.728;10.396;2022-10-16T14:11:42;17.80;;;12.40;;
59052;SDS011;44843;44.728;10.396;2022-10-16T14:14:14;20.48;;;12.38;;
59052;SDS011;44843;44.728;10.396;2022-10-16T14:16:41;24.38;;;13.57;;
59052;SDS011;44843;44.728;10.396;2022-10-16T14:19:17;22.73;;;13.30;;
59052;SDS011;44843;44.728;10.396;2022-10-16T14:21:47;25.70;;;13.63;;
59052;SDS011;44843;44.728;10.396;2022-10-16T14:24:13;20.67;;;13.05;;
59052;SDS011;44843;44.728;10.396;2022-10-16T14:26:50;21.33;;;13.60;;
59052;SDS011;44843;44.728;10.396;2022-10-16T14:29:19;18.15;;;12.52;;
59052;SDS011;44843;44.728;10.396;2022-10-16T14:31:55;20.13;;;12.50;;
59052;SDS011;44843;44.728;10.396;2022-10-16T14:36:49;25.40;;;13.40;;
59052;SDS011;44843;44.728;10.396;2022-10-16T14:39:19;20.77;;;12.63;;
59052;SDS011;44843;44.728;10.396;2022-10-16T14:41:47;19.55;;;12.63;;
59052;SDS011;44843;44.728;10.396;2022-10-16T14:44:14;17.70;;;11.00;;
59052;SDS011;44843;44.728;10.396;2022-10-16T14:46:42;18.73;;;11.55;;
59052;SDS011;44843;44.728;10.396;2022-10-16T14:51:35;18.48;;;12.13;;
59052;SDS011;44843;44.728;10.396;2022-10-16T14:54:01;17.63;;;11.73;;
59052;SDS011;44843;44.728;10.396;2022-10-16T14:56:32;20.80;;;12.15;;
59052;SDS011;44843;44.728;10.396;2022-10-16T14:59:07;16.10;;;11.15;;
59052;SDS011;44843;44.728;10.396;2022-10-16T15:01:38;18.30;;;11.85;;
59052;SDS011;44843;44.728;10.396;2022-10-16T15:04:03;19.33;;;12.13;;
59052;SDS011;44843;44.728;10.396;2022-10-16T15:06:29;17.98;;;12.05;;
59052;SDS011;44843;44.728;10.396;2022-10-16T15:08:54;21.15;;;11.07;;
59052;SDS011;44843;44.728;10.396;2022-10-16T15:11:19;15.10;;;10.43;;
59052;SDS011;44843;44.728;10.396;2022-10-16T15:13:45;23.25;;;12.02;;
59052;SDS011;44843;44.728;10.396;2022-10-16T15:16:12;17.75;;;11.65;;
59052;SDS011;44843;44.728;10.396;2022-10-16T15:18:39;19.48;;;11.45;;
59052;SDS011;44843;44.728;10.396;2022-10-16T15:21:04;21.23;;;11.70;;
59052;SDS011;44843;44.728;10.396;2022-10-16T15:23:30;24.90;;;11.63;;
59052;SDS011;44843;44.728;10.396;2022-10-16T15:25:56;17.13;;;10.70;;
59052;SDS011;44843;44.728;10.396;2022-10-16T15:28:22;18.02;;;10.90;;
59052;SDS011;44843;44.728;10.396;2022-10-16T15:30:49;19.67;;;10.63;;
59052;SDS011;44843;44.728;10.396;2022-10-16T15:33:19;17.35;;;10.85;;
59052;SDS011;44843;44.728;10.396;2022-10-16T15:35:48;16.33;;;10.27;;
59052;SDS011;44843;44.728;10.396;2022-10-16T15:38:14;17.02;;;10.95;;
59052;SDS011;44843;44.728;10.396;2022-10-16T15:40:41;21.00;;;11.13;;
59052;SDS011;44843;44.728;10.396;2022-10-16T15:43:06;16.40;;;10.30;;
59052;SDS011;44843;44.728;10.396;2022-10-16T15:45:32;21.83;;;11.10;;
59052;SDS011;44843;44.728;10.396;2022-10-16T15:47:57;18.83;;;11.20;;
59052;SDS011;44843;44.728;10.396;2022-10-16T15:50:23;16.75;;;10.52;;
59052;SDS011;44843;44.728;10.396;2022-10-16T15:52:49;14.48;;;10.50;;
59052;SDS011;44843;44.728;10.396;2022-10-16T15:55:16;15.18;;;11.15;;
59052;SDS011;44843;44.728;10.396;2022-10-16T15:57:43;15.52;;;10.60;;
59052;SDS011;44843;44.728;10.396;2022-10-16T16:00:11;20.33;;;10.77;;
59052;SDS011;44843;44.728;10.396;2022-10-16T16:02:39;16.77;;;9.95;;
59052;SDS011;44843;44.728;10.396;2022-10-16T16:05:05;15.35;;;9.80;;
59052;SDS011;44843;44.728;10.396;2022-10-16T16:07:33;22.05;;;10.90;;
59052;SDS011;44843;44.728;10.396;2022-10-16T16:09:59;15.85;;;10.38;;
59052;SDS011;44843;44.728;10.396;2022-10-16T16:12:25;18.00;;;11.43;;
59052;SDS011;44843;44.728;10.396;2022-10-16T16:14:50;15.45;;;9.75;;
59052;SDS011;44843;44.728;10.396;2022-10-16T16:17:16;15.80;;;10.50;;
59052;SDS011;44843;44.728;10.396;2022-10-16T16:19:41;16.38;;;11.02;;
59052;SDS011;44843;44.728;10.396;2022-10-16T16:22:07;17.15;;;10.50;;
59052;SDS011;44843;44.728;10.396;2022-10-16T16:24:32;15.40;;;10.00;;
59052;SDS011;44843;44.728;10.396;2022-10-16T16:26:58;17.13;;;10.38;;
59052;SDS011;44843;44.728;10.396;2022-10-16T16:29:23;17.27;;;10.60;;
59052;SDS011;44843;44.728;10.396;2022-10-16T16:31:49;15.05;;;9.35;;
59052;SDS011;44843;44.728;10.396;2022-10-16T16:34:14;16.95;;;9.60;;